Alberhill, CA

2:25 PM PDT on September 02, 2014 (GMT -0700)
Corona Municipal | Change Station
CLOSE
Current Station
Airport
Location: Corona,
Elevation: 531 ft
Nearby Weather Stations

Elev 531 ft 33.90 °N, 117.60 °W | Updated 29 minutes ago

Clear
Clear
90 °F
Feels Like 89 °F
N
10
Wind Variable Wind from West

Today
High -- | Low -- °F
--% Chance of Precip.
Yesterday
High -- | Low -- °F
Precip. -- in
6:24 AM 7:13 PM
First Quarter, 55% visible
Pressure 29.78 in
Visibility 10.0 miles
Clouds Clear
Heat Index 89 °F
Dew Point 58 °F
Humidity 34%
Rainfall 0.00 in
Snow Depth Not available.
UV 10 out of 12
Pollen 7.00 out of 12
Ozone Good
PM2.5 Good
Flu Activity Not available.
METAR KAJO 022056Z AUTO 27009KT 10SM CLR 32/14 A2980 RMK AO2 57022 T03220144 SLP082 $

More Conditions Fewer Conditions

Pressure 29.78 in
Visibility 10.0 miles
Clouds Clear
Heat Index 89 °F
Dew Point 58 °F
Humidity 34%
Rainfall 0.00 in
Snow Depth Not available.
UV 10 out of 12
Pollen 7.00 out of 12
Ozone Good
PM2.5 Good
Flu Activity Not available.
METAR KAJO 022056Z AUTO 27009KT 10SM CLR 32/14 A2980 RMK AO2 57022 T03220144 SLP082 $

More Conditions Fewer Conditions

10-Day Weather Forecast

Almanac

Astronomy

Sep. 02, 2014 Rise Set
Actual Time 6:24 AM PDT 7:13 PM PDT
Civil Twilight 5:58 AM PDT 7:38 PM PDT
Nautical Twilight 5:28 AM PDT 8:08 PM PDT
Astronomical Twilight 4:58 AM PDT 8:39 PM PDT
Moon 1:52 PM PDT No Moon Set
Length of Visible Light 13h 39m
Length of Day
12h 49m
Tomorrow will be 2m 0s shorter.
First Quarter, 55% of the Moon is Illuminated
Today
First Quarter
Sep 8
Full
Sep 15
Last Quarter
Sep 24
New
Oct 1
First Quarter

Today's Extremes

State Highs State Lows

Community

WunderPhotos

Upload Photos

1,749,769 photos uploaded!

Nearby

Air Quality

  Air Quality AQ Index Pollutant
Yesterday Good
OZONE
Yesterday Good
PM10
Current Good
OZONE
Current Good
PM2.5
Wednesday Moderate
OZONE
Wednesday Good
PM10
Wednesday Good
CO
Wednesday Good
NO2

Snow Depth

Station Depth Elevation
Leavitt Meadows 0 in 7200 ft
Summit Meadow 0 in 9122 ft
Fallen Leaf 0 in 6300 ft
CSS Lab 1 in 6900 ft
Adin Mountain 0 in 6200 ft

Earthquake Activity

City Distance Mag. Time & Date
Holtville, California 127 miles 2.5 5:43 PM PDT
2014-09-01
Holtville, California 129 miles 2.5 5:26 PM PDT
2014-09-01
Minimum magnitude displayed is 2.5.

Coastal Water Temperatures

Place Temperature
Santa Monica Pier 73.0 °F
Los Angeles, CA 72.0 °F
La Jolla, CA 69.1 °F

Nearby Weather Stations